createdAt,value
2018-07-20T00:01:39.265Z,18.68
2018-07-20T00:04:07.266Z,18.76
2018-07-20T00:06:35.305Z,18.85
2018-07-20T00:09:04.153Z,18.98
2018-07-20T00:11:32.137Z,18.89
2018-07-20T00:14:00.176Z,18.77
2018-07-20T00:16:28.821Z,18.76
2018-07-20T00:18:56.841Z,18.51
2018-07-20T00:21:24.827Z,18.56
2018-07-20T00:23:54.010Z,18.55
2018-07-20T00:26:21.984Z,18.45
2018-07-20T00:28:50.428Z,18.15
2018-07-20T00:31:18.711Z,18.15
2018-07-20T00:33:46.705Z,18.00
2018-07-20T00:36:14.713Z,18.09
2018-07-20T00:38:42.714Z,17.86
2018-07-20T00:41:10.733Z,17.85
2018-07-20T00:43:38.693Z,17.73
2018-07-20T00:46:06.740Z,17.57
2018-07-20T00:48:34.748Z,17.74
2018-07-20T00:51:02.750Z,17.73
2018-07-20T00:53:30.825Z,17.85
2018-07-20T00:55:58.876Z,17.83
2018-07-20T00:58:27.102Z,17.66
2018-07-20T01:00:55.108Z,17.78
2018-07-20T01:03:23.130Z,17.89
2018-07-20T01:05:51.136Z,17.94
2018-07-20T01:08:19.140Z,18.04
2018-07-20T01:10:47.133Z,18.16
2018-07-20T01:13:15.253Z,18.19
2018-07-20T01:15:43.252Z,17.98
2018-07-20T01:18:11.252Z,17.90
2018-07-20T01:20:39.232Z,17.80
2018-07-20T01:23:07.221Z,17.78
2018-07-20T01:25:35.250Z,17.74
2018-07-20T01:28:03.244Z,17.90
2018-07-20T01:30:31.257Z,17.81
2018-07-20T01:32:59.338Z,18.04
2018-07-20T01:35:27.343Z,18.08
2018-07-20T01:37:55.348Z,18.23
2018-07-20T01:40:23.340Z,18.27
2018-07-20T01:42:51.356Z,18.37
2018-07-20T01:45:19.388Z,18.24
2018-07-20T01:47:47.390Z,18.16
2018-07-20T01:50:15.567Z,18.05
2018-07-20T01:52:43.544Z,17.73
2018-07-20T01:55:11.564Z,17.65
2018-07-20T01:57:39.581Z,17.53
2018-07-20T02:00:07.709Z,17.46
2018-07-20T02:02:35.711Z,17.46
2018-07-20T02:05:03.718Z,17.27
2018-07-20T02:07:31.718Z,17.45
2018-07-20T02:09:59.725Z,17.51
2018-07-20T02:12:27.820Z,17.41
2018-07-20T02:14:55.816Z,17.33
2018-07-20T02:17:23.824Z,17.07
2018-07-20T02:19:51.817Z,17.01
2018-07-20T02:22:19.817Z,17.14
2018-07-20T02:24:47.817Z,17.08
2018-07-20T02:27:15.808Z,17.09
2018-07-20T02:29:43.797Z,17.08
2018-07-20T02:32:11.776Z,17.18
2018-07-20T02:34:39.915Z,17.19
2018-07-20T02:37:07.900Z,17.35
2018-07-20T02:39:35.928Z,17.49
2018-07-20T02:42:03.994Z,17.37
2018-07-20T02:44:32.061Z,17.28
2018-07-20T02:47:00.118Z,17.30
2018-07-20T02:49:28.102Z,17.24
2018-07-20T02:51:56.091Z,17.28
2018-07-20T02:54:24.076Z,17.39
2018-07-20T02:56:52.060Z,17.39
2018-07-20T02:59:20.540Z,17.34
2018-07-20T03:01:48.522Z,17.52
2018-07-20T03:04:16.525Z,17.48
2018-07-20T03:06:44.596Z,17.56
2018-07-20T03:09:13.640Z,17.49
2018-07-20T03:11:42.441Z,17.43
2018-07-20T03:14:10.497Z,17.50
2018-07-20T03:16:38.684Z,17.48
2018-07-20T03:19:07.991Z,17.29
2018-07-20T03:21:36.062Z,17.38
2018-07-20T03:24:04.018Z,17.37
2018-07-20T03:26:32.205Z,17.20
2018-07-20T03:29:00.189Z,17.29
2018-07-20T03:31:28.229Z,17.47
2018-07-20T03:33:56.245Z,17.46
2018-07-20T03:36:24.263Z,17.58
2018-07-20T03:38:52.249Z,17.60
2018-07-20T03:41:20.228Z,17.65
2018-07-20T03:43:48.227Z,17.75
2018-07-20T03:46:16.213Z,17.60
2018-07-20T03:48:44.196Z,17.64
2018-07-20T03:51:12.199Z,17.53
2018-07-20T03:53:40.189Z,17.60
2018-07-20T03:56:08.324Z,17.59
2018-07-20T03:58:36.324Z,17.67
2018-07-20T04:01:04.325Z,17.73
2018-07-20T04:03:32.312Z,17.89
2018-07-20T04:06:00.310Z,17.97
2018-07-20T04:08:28.300Z,18.03
2018-07-20T04:10:57.360Z,18.04
2018-07-20T04:13:25.348Z,17.61
2018-07-20T04:15:53.369Z,17.88
2018-07-20T04:18:21.343Z,17.89
2018-07-20T04:20:49.336Z,17.78
2018-07-20T04:23:17.503Z,17.59
2018-07-20T04:25:45.540Z,17.44
2018-07-20T04:28:13.586Z,17.27
2018-07-20T04:30:41.580Z,17.23
2018-07-20T04:33:09.580Z,17.12
2018-07-20T04:35:37.589Z,17.14
2018-07-20T04:38:05.576Z,17.15
2018-07-20T04:40:33.569Z,17.23
2018-07-20T04:43:01.576Z,17.42
2018-07-20T04:45:29.560Z,17.66
2018-07-20T04:47:57.576Z,17.61
2018-07-20T04:50:25.576Z,17.70
2018-07-20T04:52:53.569Z,17.79
2018-07-20T04:55:21.568Z,17.80
2018-07-20T04:57:49.570Z,17.63
2018-07-20T05:00:17.553Z,17.61
2018-07-20T05:02:45.601Z,17.77
2018-07-20T05:05:13.596Z,17.85
2018-07-20T05:07:41.617Z,17.67
2018-07-20T05:10:09.609Z,17.78
2018-07-20T05:12:37.614Z,17.70
2018-07-20T05:15:05.601Z,17.77
2018-07-20T05:17:33.615Z,17.82
2018-07-20T05:20:01.881Z,17.69
2018-07-20T05:22:29.944Z,17.81
2018-07-20T05:24:58.036Z,17.72
2018-07-20T05:27:26.052Z,17.70
2018-07-20T05:29:54.057Z,17.67
2018-07-20T05:32:22.089Z,17.59
2018-07-20T05:34:50.173Z,17.62
2018-07-20T05:37:18.167Z,17.71
2018-07-20T05:39:46.320Z,17.73
2018-07-20T05:42:14.314Z,17.58
2018-07-20T05:44:42.313Z,17.70
2018-07-20T05:47:10.928Z,17.81
2018-07-20T05:49:38.940Z,17.83
2018-07-20T05:52:06.947Z,17.83
2018-07-20T05:54:34.932Z,17.77
2018-07-20T05:57:02.925Z,17.85
2018-07-20T05:59:30.913Z,18.00
2018-07-20T06:01:58.914Z,18.08
2018-07-20T06:04:26.920Z,18.10
2018-07-20T06:06:55.039Z,18.27
2018-07-20T06:09:23.086Z,18.17
2018-07-20T06:11:51.106Z,18.24
2018-07-20T06:14:19.193Z,18.29
2018-07-20T06:16:47.214Z,18.24
2018-07-20T06:19:15.218Z,18.36
2018-07-20T06:21:43.289Z,18.39
2018-07-20T06:24:11.281Z,18.40
2018-07-20T06:26:39.284Z,18.31
2018-07-20T06:29:07.286Z,18.45
2018-07-20T06:31:35.337Z,18.65
2018-07-20T06:34:03.344Z,18.58
2018-07-20T06:36:31.376Z,18.80
2018-07-20T06:38:59.410Z,18.89
2018-07-20T06:41:27.432Z,18.88
2018-07-20T06:43:55.472Z,18.90
2018-07-20T06:46:23.544Z,19.02
2018-07-20T06:48:51.548Z,19.24
2018-07-20T06:51:19.593Z,19.39
2018-07-20T06:53:47.596Z,19.40
2018-07-20T06:56:15.612Z,19.36
2018-07-20T06:58:43.736Z,19.39
2018-07-20T07:01:11.721Z,19.43
2018-07-20T07:03:39.887Z,19.59
2018-07-20T07:06:07.932Z,19.70
2018-07-20T07:08:35.941Z,19.72
2018-07-20T07:11:03.956Z,20.08
2018-07-20T07:13:32.152Z,20.38
2018-07-20T07:16:00.422Z,20.36
2018-07-20T07:18:28.465Z,20.42
2018-07-20T07:20:56.576Z,20.50
2018-07-20T07:23:24.661Z,20.93
2018-07-20T07:25:53.125Z,21.61
2018-07-20T07:28:21.080Z,22.40
2018-07-20T07:30:49.172Z,22.85
2018-07-20T07:33:17.221Z,22.81
2018-07-20T07:35:45.232Z,22.92
2018-07-20T07:38:13.228Z,22.93
2018-07-20T07:40:41.242Z,22.55
2018-07-20T07:43:09.323Z,22.29
2018-07-20T07:45:37.322Z,22.17
2018-07-20T07:48:05.348Z,22.27
2018-07-20T07:50:33.408Z,21.80
2018-07-20T07:53:01.430Z,21.93
2018-07-20T07:55:29.436Z,22.25
2018-07-20T07:57:57.444Z,23.06
2018-07-20T08:00:25.480Z,23.60
2018-07-20T08:02:53.520Z,23.64
2018-07-20T08:05:21.543Z,23.80
2018-07-20T08:07:49.548Z,23.57
2018-07-20T08:10:17.609Z,23.61
2018-07-20T08:12:45.573Z,23.74
2018-07-20T08:15:13.573Z,23.82
2018-07-20T08:17:41.592Z,23.91
2018-07-20T08:20:09.620Z,23.78
2018-07-20T08:22:37.672Z,23.78
2018-07-20T08:25:05.688Z,23.44
2018-07-20T08:27:33.716Z,23.40
2018-07-20T08:30:01.784Z,23.53
2018-07-20T08:32:29.797Z,23.89
2018-07-20T08:34:57.842Z,23.94
2018-07-20T08:37:25.948Z,23.93
2018-07-20T08:39:54.099Z,24.01
2018-07-20T08:42:22.104Z,24.04
2018-07-20T08:44:50.132Z,24.18
2018-07-20T08:47:18.201Z,24.29
2018-07-20T08:49:46.259Z,24.53
2018-07-20T08:52:14.341Z,24.79
2018-07-20T08:54:42.368Z,24.97
2018-07-20T08:57:10.817Z,25.20
2018-07-20T08:59:39.128Z,25.63
2018-07-20T09:02:07.415Z,25.67
2018-07-20T09:04:35.801Z,25.59
2018-07-20T09:07:04.049Z,25.94
2018-07-20T09:09:32.235Z,26.06
2018-07-20T09:12:00.242Z,26.14
2018-07-20T09:14:29.528Z,25.85
2018-07-20T09:16:57.773Z,25.80
2018-07-20T09:19:25.852Z,25.56
2018-07-20T09:21:54.061Z,25.43
2018-07-20T09:24:22.397Z,25.59
2018-07-20T09:26:51.654Z,26.04
2018-07-20T09:29:19.888Z,26.34
2018-07-20T09:31:47.993Z,26.46
2018-07-20T09:34:16.285Z,26.42
2018-07-20T09:36:44.648Z,26.59
2018-07-20T09:39:13.065Z,26.70
2018-07-20T09:41:41.233Z,26.46
2018-07-20T09:44:10.176Z,26.57
2018-07-20T09:46:38.460Z,26.43
2018-07-20T09:49:06.762Z,26.60
2018-07-20T09:51:35.555Z,27.11
2018-07-20T09:54:03.617Z,27.56
2018-07-20T09:56:31.660Z,27.59
2018-07-20T09:58:59.710Z,27.31
2018-07-20T10:01:27.714Z,27.31
2018-07-20T10:03:55.759Z,27.10
2018-07-20T10:06:23.756Z,27.40
2018-07-20T10:08:51.800Z,27.28
2018-07-20T10:11:19.855Z,27.26
2018-07-20T10:13:47.876Z,27.51
2018-07-20T10:16:15.940Z,27.29
2018-07-20T10:18:43.994Z,26.99
2018-07-20T10:21:12.105Z,26.94
2018-07-20T10:23:40.193Z,27.09
2018-07-20T10:26:09.118Z,27.45
2018-07-20T10:28:37.429Z,27.51
2018-07-20T10:31:05.676Z,27.58
2018-07-20T10:33:33.976Z,27.73
2018-07-20T10:36:02.241Z,27.95
2018-07-20T10:38:30.353Z,27.93
2018-07-20T10:40:58.631Z,28.00
2018-07-20T10:43:26.824Z,27.81
2018-07-20T10:45:54.874Z,27.68
2018-07-20T10:48:23.280Z,27.79
2018-07-20T10:50:51.417Z,27.83
2018-07-20T10:53:19.570Z,28.11
2018-07-20T10:55:47.593Z,28.23
2018-07-20T10:58:15.694Z,28.31
2018-07-20T11:00:50.302Z,28.22
2018-07-20T11:03:18.553Z,28.59
2018-07-20T11:05:46.684Z,28.88
2018-07-20T11:08:14.832Z,28.44
2018-07-20T11:10:43.032Z,28.47
2018-07-20T11:13:11.295Z,28.47
2018-07-20T11:15:39.314Z,29.00
2018-07-20T11:18:08.474Z,29.12
2018-07-20T11:20:36.457Z,29.18
2018-07-20T11:23:04.648Z,29.30
2018-07-20T11:25:32.668Z,29.49
2018-07-20T11:28:00.768Z,29.44
2018-07-20T11:30:28.876Z,29.50
2018-07-20T11:32:57.397Z,29.51
2018-07-20T11:35:25.459Z,29.69
2018-07-20T11:37:53.490Z,30.01
2018-07-20T11:40:21.481Z,30.27
2018-07-20T11:42:49.546Z,30.52
2018-07-20T11:45:17.576Z,30.65
2018-07-20T11:47:45.624Z,30.36
2018-07-20T11:50:13.677Z,30.47
2018-07-20T11:52:41.689Z,30.42
2018-07-20T11:55:09.777Z,30.23
2018-07-20T11:57:37.819Z,30.12
2018-07-20T12:00:05.845Z,30.16
2018-07-20T12:02:33.911Z,30.63
2018-07-20T12:05:01.912Z,30.81
2018-07-20T12:07:30.088Z,30.89
2018-07-20T12:09:58.108Z,31.05
2018-07-20T12:12:26.145Z,30.85
2018-07-20T12:14:54.196Z,31.08
2018-07-20T12:17:22.243Z,31.55
2018-07-20T12:19:50.283Z,31.38
2018-07-20T12:22:18.409Z,31.02
2018-07-20T12:24:46.688Z,30.62
2018-07-20T12:27:14.949Z,30.64
2018-07-20T12:29:43.152Z,30.48
2018-07-20T12:32:11.350Z,30.51
2018-07-20T12:34:39.663Z,30.81
2018-07-20T12:37:08.010Z,30.90
2018-07-20T12:39:36.090Z,30.85
2018-07-20T12:42:04.356Z,31.04
2018-07-20T12:44:32.520Z,31.05
2018-07-20T12:47:01.677Z,31.37
2018-07-20T12:49:29.772Z,31.65
2018-07-20T12:51:57.853Z,31.58
2018-07-20T12:54:25.918Z,31.17
2018-07-20T12:56:54.107Z,31.08
2018-07-20T12:59:22.165Z,31.29
2018-07-20T13:01:50.304Z,31.43
2018-07-20T13:04:18.324Z,30.87
2018-07-20T13:06:46.457Z,30.62
2018-07-20T13:09:14.522Z,30.84
2018-07-20T13:11:43.276Z,31.19
2018-07-20T13:14:12.181Z,31.11
2018-07-20T13:16:40.981Z,31.04
2018-07-20T13:19:09.108Z,31.28
2018-07-20T13:21:37.177Z,31.11
2018-07-20T13:24:05.488Z,30.84
2018-07-20T13:26:33.616Z,31.07
2018-07-20T13:29:01.796Z,30.95
2018-07-20T13:31:29.832Z,30.84
2018-07-20T13:33:57.923Z,30.78
2018-07-20T13:36:26.101Z,30.82
2018-07-20T13:38:54.169Z,30.92
2018-07-20T13:41:22.427Z,30.89
2018-07-20T13:43:50.555Z,31.25
2018-07-20T13:46:18.629Z,31.63
2018-07-20T13:48:46.741Z,31.76
2018-07-20T13:51:14.812Z,31.72
2018-07-20T13:53:43.012Z,31.64
2018-07-20T13:56:11.172Z,31.99
2018-07-20T13:58:39.313Z,32.24
2018-07-20T14:01:07.593Z,32.29
2018-07-20T14:03:35.795Z,32.28
2018-07-20T14:06:03.863Z,32.06
2018-07-20T14:08:32.265Z,31.65
2018-07-20T14:11:00.344Z,31.65
2018-07-20T14:13:28.553Z,31.73
2018-07-20T14:15:56.860Z,31.37
2018-07-20T14:18:24.996Z,31.73
2018-07-20T14:20:53.176Z,32.08
2018-07-20T14:23:21.495Z,32.69
2018-07-20T14:25:50.135Z,32.79
2018-07-20T14:28:18.132Z,32.87
2018-07-20T14:30:46.204Z,32.75
2018-07-20T14:33:14.286Z,32.56
2018-07-20T14:35:42.422Z,32.21
2018-07-20T14:38:10.596Z,32.15
2018-07-20T14:40:38.637Z,32.26
2018-07-20T14:43:07.022Z,32.57
2018-07-20T14:45:35.118Z,32.81
2018-07-20T14:48:03.222Z,33.37
2018-07-20T14:50:31.290Z,33.43
2018-07-20T14:52:59.370Z,33.11
2018-07-20T14:55:27.516Z,32.71
2018-07-20T14:57:55.858Z,32.79
2018-07-20T15:00:23.851Z,32.72
2018-07-20T15:02:51.860Z,33.04
2018-07-20T15:05:19.967Z,32.94
2018-07-20T15:07:47.985Z,32.74
2018-07-20T15:10:16.095Z,32.66
2018-07-20T15:12:44.121Z,32.62
2018-07-20T15:15:12.129Z,32.15
2018-07-20T15:17:40.216Z,31.90
2018-07-20T15:20:08.637Z,31.81
2018-07-20T15:22:36.712Z,31.74
2018-07-20T15:25:05.351Z,32.01
2018-07-20T15:27:33.524Z,31.96
2018-07-20T15:30:01.596Z,31.80
2018-07-20T15:32:29.630Z,31.59
2018-07-20T15:34:57.618Z,31.68
2018-07-20T15:37:25.738Z,32.13
2018-07-20T15:39:53.845Z,32.37
2018-07-20T15:42:21.771Z,32.25
2018-07-20T15:44:50.075Z,32.08
2018-07-20T15:47:18.117Z,32.30
2018-07-20T15:49:46.076Z,32.59
2018-07-20T15:54:42.091Z,32.31
2018-07-20T15:57:10.096Z,31.97
2018-07-20T15:59:38.131Z,31.90
2018-07-20T16:02:06.400Z,31.95
2018-07-20T16:04:34.408Z,31.82
2018-07-20T16:07:02.618Z,31.43
2018-07-20T16:09:30.629Z,31.24
2018-07-20T16:11:58.645Z,31.00
2018-07-20T16:14:26.648Z,30.81
2018-07-20T16:16:54.676Z,31.02
2018-07-20T16:19:22.730Z,31.24
2018-07-20T16:21:50.730Z,31.43
2018-07-20T16:24:18.778Z,31.54
2018-07-20T16:26:46.820Z,31.52
2018-07-20T16:29:14.828Z,31.72
2018-07-20T16:31:42.833Z,31.28
2018-07-20T16:34:10.848Z,31.16
2018-07-20T16:36:38.905Z,30.99
2018-07-20T16:39:08.612Z,30.95
2018-07-20T16:41:36.768Z,30.99
2018-07-20T16:44:04.801Z,30.61
2018-07-20T16:46:32.873Z,30.56
2018-07-20T16:49:00.914Z,30.76
2018-07-20T16:51:28.937Z,30.34
2018-07-20T16:53:57.015Z,30.37
2018-07-20T16:56:25.024Z,30.27
2018-07-20T16:58:53.056Z,30.22
2018-07-20T17:01:21.076Z,29.96
2018-07-20T17:03:49.247Z,29.74
2018-07-20T17:06:17.344Z,29.62
2018-07-20T17:08:45.444Z,29.59
2018-07-20T17:11:13.567Z,29.81
2018-07-20T17:13:41.675Z,29.74
2018-07-20T17:16:09.713Z,29.62
2018-07-20T17:18:37.829Z,29.69
2018-07-20T17:21:05.876Z,29.84
2018-07-20T17:23:34.005Z,30.10
2018-07-20T17:26:02.141Z,29.76
2018-07-20T17:28:30.335Z,29.51
2018-07-20T17:30:58.501Z,29.65
2018-07-20T17:33:26.682Z,29.46
2018-07-20T17:35:55.322Z,29.53
2018-07-20T17:38:23.453Z,29.59
2018-07-20T17:40:51.660Z,29.53
2018-07-20T17:43:19.849Z,29.66
2018-07-20T17:45:48.495Z,29.71
2018-07-20T17:48:16.658Z,29.52
2018-07-20T17:50:44.959Z,29.53
2018-07-20T17:53:13.096Z,29.29
2018-07-20T17:55:41.180Z,29.12
2018-07-20T17:58:09.311Z,28.89
2018-07-20T18:00:37.316Z,28.79
2018-07-20T18:03:05.461Z,28.64
2018-07-20T18:05:33.461Z,28.57
2018-07-20T18:08:01.909Z,28.31
2018-07-20T18:10:30.107Z,28.05
2018-07-20T18:12:58.089Z,27.93
2018-07-20T18:15:26.102Z,27.68
2018-07-20T18:17:54.937Z,27.63
2018-07-20T18:20:23.992Z,27.35
2018-07-20T18:22:52.131Z,27.40
2018-07-20T18:25:20.413Z,27.28
2018-07-20T18:27:48.598Z,27.09
2018-07-20T18:30:16.756Z,27.00
2018-07-20T18:32:44.949Z,26.97
2018-07-20T18:35:12.984Z,26.90
2018-07-20T18:37:41.172Z,26.85
2018-07-20T18:40:09.281Z,26.82
2018-07-20T18:42:37.576Z,26.77
2018-07-20T18:45:06.471Z,26.76
2018-07-20T18:47:34.511Z,26.55
2018-07-20T18:50:02.698Z,26.44
2018-07-20T18:52:30.785Z,26.30
2018-07-20T18:54:58.824Z,26.03
2018-07-20T18:57:26.897Z,25.92
2018-07-20T18:59:56.213Z,25.89
2018-07-20T19:02:24.257Z,25.71
2018-07-20T19:04:52.401Z,25.59
2018-07-20T19:07:20.553Z,25.58
2018-07-20T19:09:48.899Z,25.44
2018-07-20T19:12:16.977Z,25.35
2018-07-20T19:14:45.179Z,25.30
2018-07-20T19:17:13.425Z,25.15
2018-07-20T19:19:41.588Z,25.05
2018-07-20T19:22:09.820Z,24.93
2018-07-20T19:24:37.916Z,24.77
2018-07-20T19:27:06.273Z,24.81
2018-07-20T19:29:34.681Z,24.87
2018-07-20T19:32:02.757Z,24.68
2018-07-20T19:34:30.977Z,24.60
2018-07-20T19:36:59.136Z,24.46
2018-07-20T19:39:27.334Z,24.28
2018-07-20T19:41:55.608Z,24.28
2018-07-20T19:44:23.809Z,24.38
2018-07-20T19:46:51.937Z,24.29
2018-07-20T19:49:20.200Z,24.19
2018-07-20T19:51:48.260Z,24.13
2018-07-20T19:54:16.456Z,24.09
2018-07-20T19:56:44.770Z,24.00
2018-07-20T19:59:13.050Z,24.01
2018-07-20T20:01:41.152Z,24.01
2018-07-20T20:04:09.307Z,23.82
2018-07-20T20:06:37.588Z,23.75
2018-07-20T20:09:07.770Z,23.71
2018-07-20T20:11:35.820Z,23.62
2018-07-20T20:14:03.969Z,23.52
2018-07-20T20:16:32.189Z,23.41
2018-07-20T20:19:00.214Z,23.19
2018-07-20T20:21:28.220Z,23.32
2018-07-20T20:23:56.268Z,23.11
2018-07-20T20:26:24.289Z,23.04
2018-07-20T20:28:52.372Z,22.98
2018-07-20T20:31:20.472Z,22.88
2018-07-20T20:33:48.473Z,22.93
2018-07-20T20:36:16.609Z,22.83
2018-07-20T20:38:44.631Z,22.81
2018-07-20T20:41:12.654Z,22.90
2018-07-20T20:43:40.904Z,22.79
2018-07-20T20:46:08.970Z,22.78
2018-07-20T20:48:38.076Z,22.66
2018-07-20T20:51:06.127Z,22.67
2018-07-20T20:53:34.088Z,22.53
2018-07-20T20:56:02.213Z,22.52
2018-07-20T20:58:30.293Z,22.47
2018-07-20T21:00:58.341Z,22.47
2018-07-20T21:03:26.357Z,22.29
2018-07-20T21:05:54.355Z,22.22
2018-07-20T21:08:22.537Z,22.15
2018-07-20T21:10:50.617Z,22.04
2018-07-20T21:13:18.731Z,21.97
2018-07-20T21:15:46.789Z,21.85
2018-07-20T21:18:15.217Z,21.75
2018-07-20T21:20:43.348Z,21.65
2018-07-20T21:23:11.401Z,21.58
2018-07-20T21:25:39.477Z,21.55
2018-07-20T21:28:07.483Z,21.38
2018-07-20T21:30:35.614Z,21.33
2018-07-20T21:33:03.641Z,21.35
2018-07-20T21:35:31.648Z,21.33
2018-07-20T21:37:59.664Z,21.24
2018-07-20T21:40:27.978Z,21.24
2018-07-20T21:42:56.008Z,21.28
2018-07-20T21:45:24.047Z,21.13
2018-07-20T21:47:52.140Z,21.08
2018-07-20T21:50:20.156Z,21.12
2018-07-20T21:52:48.337Z,21.11
2018-07-20T21:55:16.436Z,21.17
2018-07-20T21:57:44.496Z,21.16
2018-07-20T22:00:15.381Z,21.06
2018-07-20T22:02:43.451Z,21.02
2018-07-20T22:05:11.437Z,21.03
2018-07-20T22:07:39.508Z,21.02
2018-07-20T22:10:08.092Z,20.90
2018-07-20T22:12:36.345Z,20.89
2018-07-20T22:15:05.020Z,20.85
2018-07-20T22:17:33.149Z,20.78
2018-07-20T22:20:01.165Z,20.81
2018-07-20T22:22:29.220Z,20.77
2018-07-20T22:24:57.419Z,20.91
2018-07-20T22:27:25.420Z,20.92
2018-07-20T22:29:53.550Z,20.77
2018-07-20T22:32:21.949Z,20.70
2018-07-20T22:34:50.035Z,20.74
2018-07-20T22:37:18.036Z,20.59
2018-07-20T22:39:46.067Z,20.54
2018-07-20T22:42:14.065Z,20.53
2018-07-20T22:44:42.323Z,20.43
2018-07-20T22:47:10.406Z,20.46
2018-07-20T22:49:38.445Z,20.43
2018-07-20T22:52:06.548Z,20.35
2018-07-20T22:54:35.641Z,20.33
2018-07-20T22:57:03.646Z,20.31
2018-07-20T22:59:31.672Z,20.27
2018-07-20T23:01:59.789Z,20.29
2018-07-20T23:04:27.820Z,20.22
2018-07-20T23:06:55.889Z,20.14
2018-07-20T23:09:24.004Z,20.15
2018-07-20T23:11:52.041Z,20.13
2018-07-20T23:14:20.096Z,20.13
2018-07-20T23:16:48.120Z,20.22
2018-07-20T23:19:16.145Z,20.18
2018-07-20T23:21:44.155Z,20.17
2018-07-20T23:24:12.229Z,20.16
2018-07-20T23:26:40.268Z,20.28
2018-07-20T23:29:08.325Z,20.26
2018-07-20T23:31:36.313Z,20.36
2018-07-20T23:34:04.369Z,20.27
2018-07-20T23:36:32.383Z,20.25
2018-07-20T23:39:00.370Z,20.25
2018-07-20T23:41:28.513Z,20.15
2018-07-20T23:43:56.502Z,20.11
2018-07-20T23:46:24.628Z,20.09
2018-07-20T23:48:52.604Z,20.06
2018-07-20T23:51:20.649Z,19.98
2018-07-20T23:53:48.693Z,20.05
2018-07-20T23:56:16.693Z,19.96
2018-07-20T23:58:44.694Z,19.98
